Terminal Aerodrome Forecast
Issued by NWS

Home | Current Version | Previous Version | Text Only | Print | Product List | Glossary On
Versions: 1 2 3 4 5 6 7 8 9 10 11 12
000
FTUS45 KTFX 271128
TAFCTB
TAF
KCTB 271128Z 2712/2812 VRB05KT P6SM FEW080
     FM271700 07012KT P6SM SCT070 BKN090
     FM280000 04007KT P6SM VCTS BKN070CB
      TEMPO 2801/2803 VRB15G35KT P6SM -TSRA BKN050CB
     FM280400 05005KT P6SM BKN100=

USA.gov is the U.S. government's official web portal to all federal, state and local government web resources and services.